createdAt,value
2018-08-22T00:00:42.864Z,20.10
2018-08-22T00:01:43.001Z,20.12
2018-08-22T00:02:42.911Z,20.10
2018-08-22T00:03:42.930Z,20.22
2018-08-22T00:04:42.959Z,20.04
2018-08-22T00:05:42.979Z,20.10
2018-08-22T00:06:43.008Z,20.08
2018-08-22T00:07:43.023Z,20.10
2018-08-22T00:08:43.054Z,20.07
2018-08-22T00:09:43.074Z,20.08
2018-08-22T00:10:43.102Z,20.10
2018-08-22T00:11:43.123Z,20.08
2018-08-22T00:12:43.147Z,20.02
2018-08-22T00:13:43.179Z,20.10
2018-08-22T00:14:43.197Z,20.12
2018-08-22T00:15:43.225Z,20.13
2018-08-22T00:16:43.248Z,20.04
2018-08-22T00:17:43.265Z,20.07
2018-08-22T00:18:43.288Z,19.98
2018-08-22T00:19:43.319Z,20.05
2018-08-22T00:20:43.343Z,20.04
2018-08-22T00:21:43.365Z,20.07
2018-08-22T00:22:43.394Z,20.07
2018-08-22T00:23:43.413Z,19.98
2018-08-22T00:24:43.432Z,19.97
2018-08-22T00:25:43.485Z,20.01
2018-08-22T00:26:43.486Z,19.95
2018-08-22T00:27:43.509Z,19.85
2018-08-22T00:28:43.529Z,19.92
2018-08-22T00:29:43.555Z,19.98
2018-08-22T00:30:43.581Z,19.85
2018-08-22T00:31:43.602Z,19.85
2018-08-22T00:32:43.636Z,19.85
2018-08-22T00:33:43.652Z,19.85
2018-08-22T00:34:43.672Z,19.85
2018-08-22T00:35:43.701Z,19.85
2018-08-22T00:36:43.720Z,19.87
2018-08-22T00:37:43.741Z,19.85
2018-08-22T00:38:43.766Z,19.95
2018-08-22T00:39:43.791Z,19.86
2018-08-22T00:40:43.825Z,19.85
2018-08-22T00:41:43.852Z,19.82
2018-08-22T00:42:43.864Z,19.92
2018-08-22T00:43:43.888Z,19.83
2018-08-22T00:44:43.910Z,19.80
2018-08-22T00:45:43.934Z,19.89
2018-08-22T00:46:43.957Z,19.89
2018-08-22T00:47:43.983Z,19.76
2018-08-22T00:48:44.001Z,19.78
2018-08-22T00:49:44.036Z,19.76
2018-08-22T00:50:44.056Z,19.72
2018-08-22T00:51:44.076Z,19.78
2018-08-22T00:52:44.102Z,19.70
2018-08-22T00:53:44.126Z,19.68
2018-08-22T00:54:44.156Z,19.67
2018-08-22T00:55:44.173Z,19.65
2018-08-22T00:56:44.196Z,19.65
2018-08-22T00:57:44.283Z,19.64
2018-08-22T00:58:44.259Z,19.58
2018-08-22T00:59:44.269Z,19.58
2018-08-22T01:00:44.296Z,19.61
2018-08-22T01:01:44.319Z,19.55
2018-08-22T01:02:44.341Z,19.58
2018-08-22T01:03:44.368Z,19.64
2018-08-22T01:04:44.406Z,19.58
2018-08-22T01:05:44.415Z,19.55
2018-08-22T01:06:44.437Z,19.60
2018-08-22T01:07:44.462Z,19.55
2018-08-22T01:08:44.483Z,19.52
2018-08-22T01:09:44.511Z,19.49
2018-08-22T01:10:44.533Z,19.50
2018-08-22T01:11:44.553Z,19.58
2018-08-22T01:12:44.579Z,19.49
2018-08-22T01:13:44.606Z,19.49
2018-08-22T01:14:44.626Z,19.42
2018-08-22T01:15:44.653Z,19.52
2018-08-22T01:16:44.672Z,19.46
2018-08-22T01:17:44.697Z,19.32
2018-08-22T01:18:44.725Z,19.42
2018-08-22T01:19:44.743Z,19.40
2018-08-22T01:20:44.765Z,19.42
2018-08-22T01:21:44.793Z,19.38
2018-08-22T01:22:44.820Z,19.31
2018-08-22T01:23:44.844Z,19.34
2018-08-22T01:24:44.861Z,19.40
2018-08-22T01:25:44.889Z,19.35
2018-08-22T01:26:44.914Z,19.35
2018-08-22T01:27:44.933Z,19.34
2018-08-22T01:28:44.957Z,19.27
2018-08-22T01:29:44.986Z,19.27
2018-08-22T01:30:45.007Z,19.24
2018-08-22T01:31:45.028Z,19.24
2018-08-22T01:32:45.051Z,19.24
2018-08-22T01:33:45.077Z,19.31
2018-08-22T01:34:45.102Z,19.24
2018-08-22T01:35:45.120Z,19.23
2018-08-22T01:36:45.149Z,19.24
2018-08-22T01:37:45.171Z,19.23
2018-08-22T01:38:45.195Z,19.27
2018-08-22T01:39:45.216Z,19.21
2018-08-22T01:40:45.243Z,19.23
2018-08-22T01:41:45.263Z,19.20
2018-08-22T01:42:45.287Z,19.21
2018-08-22T01:43:45.315Z,19.16
2018-08-22T01:44:45.338Z,19.23
2018-08-22T01:45:45.361Z,19.24
2018-08-22T01:46:45.384Z,19.09
2018-08-22T01:47:45.402Z,19.06
2018-08-22T01:48:45.429Z,19.05
2018-08-22T01:49:45.456Z,19.12
2018-08-22T01:50:45.477Z,19.12
2018-08-22T01:51:45.498Z,19.12
2018-08-22T01:52:45.527Z,19.15
2018-08-22T01:53:45.543Z,19.13
2018-08-22T01:54:45.572Z,19.09
2018-08-22T01:55:45.589Z,19.07
2018-08-22T01:56:45.618Z,18.96
2018-08-22T01:57:45.647Z,19.02
2018-08-22T01:58:45.696Z,19.01
2018-08-22T01:59:45.732Z,19.02
2018-08-22T02:00:45.712Z,18.97
2018-08-22T02:01:45.731Z,19.06
2018-08-22T02:02:45.756Z,19.01
2018-08-22T02:03:45.782Z,18.93
2018-08-22T02:04:45.800Z,18.97
2018-08-22T02:05:45.824Z,18.97
2018-08-22T02:06:45.850Z,18.91
2018-08-22T02:07:45.871Z,18.97
2018-08-22T02:08:45.898Z,18.91
2018-08-22T02:09:45.921Z,18.91
2018-08-22T02:10:45.943Z,18.96
2018-08-22T02:11:45.968Z,18.91
2018-08-22T02:12:46.005Z,18.94
2018-08-22T02:13:46.021Z,18.84
2018-08-22T02:14:46.039Z,18.87
2018-08-22T02:15:46.060Z,18.83
2018-08-22T02:16:46.080Z,18.89
2018-08-22T02:17:46.112Z,18.89
2018-08-22T02:18:46.134Z,18.87
2018-08-22T02:19:46.152Z,18.72
2018-08-22T02:20:46.176Z,18.84
2018-08-22T02:21:46.200Z,18.87
2018-08-22T02:22:46.225Z,18.76
2018-08-22T02:23:46.251Z,18.87
2018-08-22T02:24:46.271Z,18.71
2018-08-22T02:25:46.290Z,18.76
2018-08-22T02:26:46.323Z,18.69
2018-08-22T02:27:46.348Z,18.62
2018-08-22T02:28:46.363Z,18.75
2018-08-22T02:29:46.390Z,18.72
2018-08-22T02:30:46.412Z,18.71
2018-08-22T02:31:46.437Z,18.68
2018-08-22T02:32:46.460Z,18.68
2018-08-22T02:33:46.502Z,18.65
2018-08-22T02:34:46.502Z,18.71
2018-08-22T02:35:46.524Z,18.69
2018-08-22T02:36:46.548Z,18.82
2018-08-22T02:37:46.576Z,18.76
2018-08-22T02:38:46.594Z,18.72
2018-08-22T02:39:46.624Z,18.78
2018-08-22T02:40:46.643Z,18.82
2018-08-22T02:41:46.664Z,18.66
2018-08-22T02:42:46.692Z,18.69
2018-08-22T02:43:46.708Z,18.59
2018-08-22T02:44:46.743Z,18.74
2018-08-22T02:45:46.756Z,18.64
2018-08-22T02:46:46.783Z,18.65
2018-08-22T02:47:46.803Z,18.68
2018-08-22T02:48:46.822Z,18.66
2018-08-22T02:49:46.855Z,18.69
2018-08-22T02:50:46.876Z,18.66
2018-08-22T02:51:46.900Z,18.66
2018-08-22T02:52:46.922Z,18.57
2018-08-22T02:53:46.948Z,18.62
2018-08-22T02:54:46.971Z,18.66
2018-08-22T02:55:46.993Z,18.66
2018-08-22T02:56:47.014Z,18.71
2018-08-22T02:57:47.032Z,18.62
2018-08-22T02:58:47.060Z,18.66
2018-08-22T02:59:47.084Z,18.56
2018-08-22T03:00:47.108Z,18.53
2018-08-22T03:01:47.132Z,18.59
2018-08-22T03:02:47.156Z,18.62
2018-08-22T03:03:47.172Z,18.66
2018-08-22T03:04:47.196Z,18.56
2018-08-22T03:05:47.226Z,18.56
2018-08-22T03:06:47.242Z,18.59
2018-08-22T03:07:47.270Z,18.59
2018-08-22T03:08:47.292Z,18.64
2018-08-22T03:09:47.316Z,18.57
2018-08-22T03:10:47.338Z,18.50
2018-08-22T03:11:47.360Z,18.49
2018-08-22T03:12:47.384Z,18.56
2018-08-22T03:13:47.411Z,18.57
2018-08-22T03:14:47.438Z,18.64
2018-08-22T03:15:47.456Z,18.57
2018-08-22T03:16:47.479Z,18.60
2018-08-22T03:17:47.498Z,18.56
2018-08-22T03:18:47.526Z,18.65
2018-08-22T03:19:47.548Z,18.66
2018-08-22T03:20:47.573Z,18.66
2018-08-22T03:21:47.596Z,18.59
2018-08-22T03:22:47.620Z,18.50
2018-08-22T03:23:47.641Z,18.50
2018-08-22T03:24:47.668Z,18.53
2018-08-22T03:25:47.692Z,18.42
2018-08-22T03:26:47.713Z,18.42
2018-08-22T03:27:47.731Z,18.39
2018-08-22T03:28:47.756Z,18.38
2018-08-22T03:29:47.778Z,18.39
2018-08-22T03:30:47.798Z,18.41
2018-08-22T03:31:47.822Z,18.51
2018-08-22T03:32:47.847Z,18.51
2018-08-22T03:33:47.879Z,18.56
2018-08-22T03:34:47.896Z,18.50
2018-08-22T03:35:47.910Z,18.47
2018-08-22T03:36:47.941Z,18.50
2018-08-22T03:37:47.958Z,18.39
2018-08-22T03:38:47.981Z,18.35
2018-08-22T03:39:48.011Z,18.39
2018-08-22T03:40:48.034Z,18.44
2018-08-22T03:41:48.056Z,18.39
2018-08-22T03:42:48.080Z,18.39
2018-08-22T03:43:48.102Z,18.41
2018-08-22T03:44:48.122Z,18.46
2018-08-22T03:45:48.148Z,18.46
2018-08-22T03:46:48.175Z,18.47
2018-08-22T03:47:48.192Z,18.51
2018-08-22T03:48:48.214Z,18.42
2018-08-22T03:49:48.237Z,18.47
2018-08-22T03:50:48.265Z,18.47
2018-08-22T03:51:48.283Z,18.44
2018-08-22T03:52:48.302Z,18.41
2018-08-22T03:53:48.337Z,18.39
2018-08-22T03:54:48.359Z,18.42
2018-08-22T03:55:48.379Z,18.44
2018-08-22T03:56:48.397Z,18.46
2018-08-22T03:57:48.426Z,18.41
2018-08-22T03:58:48.448Z,18.39
2018-08-22T03:59:48.466Z,18.42
2018-08-22T04:00:48.486Z,18.41
2018-08-22T04:01:48.520Z,18.44
2018-08-22T04:02:48.536Z,18.44
2018-08-22T04:03:48.576Z,18.32
2018-08-22T04:04:48.579Z,18.39
2018-08-22T04:05:48.612Z,18.41
2018-08-22T04:06:48.636Z,18.39
2018-08-22T04:07:48.650Z,18.39
2018-08-22T04:08:48.668Z,18.36
2018-08-22T04:09:48.695Z,18.41
2018-08-22T04:10:48.718Z,18.39
2018-08-22T04:11:48.747Z,18.46
2018-08-22T04:12:48.770Z,18.46
2018-08-22T04:13:48.787Z,18.42
2018-08-22T04:14:48.811Z,18.38
2018-08-22T04:15:48.839Z,18.36
2018-08-22T04:16:48.860Z,18.49
2018-08-22T04:17:48.884Z,18.44
2018-08-22T04:18:48.908Z,18.39
2018-08-22T04:19:48.926Z,18.42
2018-08-22T04:20:48.950Z,18.44
2018-08-22T04:21:48.978Z,18.41
2018-08-22T04:22:48.994Z,18.42
2018-08-22T04:23:49.015Z,18.41
2018-08-22T04:24:49.040Z,18.49
2018-08-22T04:25:49.058Z,18.41
2018-08-22T04:26:49.090Z,18.50
2018-08-22T04:27:49.110Z,18.38
2018-08-22T04:28:49.129Z,18.38
2018-08-22T04:29:49.160Z,18.42
2018-08-22T04:30:49.184Z,18.36
2018-08-22T04:31:49.203Z,18.42
2018-08-22T04:32:49.226Z,18.39
2018-08-22T04:33:49.246Z,18.47
2018-08-22T04:34:49.271Z,18.41
2018-08-22T04:35:49.291Z,18.41
2018-08-22T04:36:49.316Z,18.39
2018-08-22T04:37:49.334Z,18.44
2018-08-22T04:38:49.359Z,18.41
2018-08-22T04:39:49.386Z,18.44
2018-08-22T04:40:49.403Z,18.44
2018-08-22T04:41:49.433Z,18.41
2018-08-22T04:42:49.455Z,18.41
2018-08-22T04:43:49.479Z,18.42
2018-08-22T04:44:49.499Z,18.44
2018-08-22T04:45:49.522Z,18.41
2018-08-22T04:46:49.547Z,18.53
2018-08-22T04:47:49.565Z,18.42
2018-08-22T04:48:49.597Z,18.50
2018-08-22T04:49:49.616Z,18.56
2018-08-22T04:50:49.633Z,18.51
2018-08-22T04:51:49.662Z,18.56
2018-08-22T04:52:49.684Z,18.51
2018-08-22T04:53:49.715Z,18.44
2018-08-22T04:54:49.734Z,18.53
2018-08-22T04:55:49.748Z,18.46
2018-08-22T04:56:49.784Z,18.56
2018-08-22T04:57:49.798Z,18.49
2018-08-22T04:58:49.825Z,18.42
2018-08-22T04:59:49.844Z,18.44
2018-08-22T05:00:49.864Z,18.44
2018-08-22T05:01:49.888Z,18.44
2018-08-22T05:02:49.912Z,18.42
2018-08-22T05:03:49.932Z,18.44
2018-08-22T05:04:49.964Z,18.51
2018-08-22T05:05:49.999Z,18.49
2018-08-22T05:06:50.004Z,18.53
2018-08-22T05:07:50.029Z,18.47
2018-08-22T05:08:50.054Z,18.51
2018-08-22T05:09:50.071Z,18.47
2018-08-22T05:10:50.104Z,18.47
2018-08-22T05:11:50.120Z,18.57
2018-08-22T05:12:50.148Z,18.53
2018-08-22T05:13:50.164Z,18.59
2018-08-22T05:14:50.191Z,18.57
2018-08-22T05:15:50.212Z,18.51
2018-08-22T05:16:50.234Z,18.53
2018-08-22T05:17:50.258Z,18.53
2018-08-22T05:18:50.278Z,18.49
2018-08-22T05:19:50.307Z,18.47
2018-08-22T05:20:50.332Z,18.51
2018-08-22T05:21:50.354Z,18.51
2018-08-22T05:22:50.372Z,18.47
2018-08-22T05:23:50.396Z,18.51
2018-08-22T05:24:50.449Z,18.50
2018-08-22T05:25:50.448Z,18.46
2018-08-22T05:26:50.466Z,18.47
2018-08-22T05:27:50.488Z,18.54
2018-08-22T05:28:50.508Z,18.64
2018-08-22T05:29:50.536Z,18.60
2018-08-22T05:30:50.557Z,18.66
2018-08-22T05:31:50.581Z,18.65
2018-08-22T05:32:50.608Z,18.59
2018-08-22T05:33:50.624Z,18.49
2018-08-22T05:34:50.647Z,18.49
2018-08-22T05:35:50.675Z,18.44
2018-08-22T05:36:50.694Z,18.62
2018-08-22T05:37:50.720Z,18.59
2018-08-22T05:38:50.738Z,18.59
2018-08-22T05:39:50.768Z,18.50
2018-08-22T05:40:50.782Z,18.59
2018-08-22T05:41:50.813Z,18.66
2018-08-22T05:42:50.832Z,18.65
2018-08-22T05:43:50.854Z,18.64
2018-08-22T05:44:50.878Z,18.62
2018-08-22T05:45:50.899Z,18.72
2018-08-22T05:46:50.922Z,18.71
2018-08-22T05:47:50.950Z,18.69
2018-08-22T05:48:50.966Z,18.72
2018-08-22T05:49:50.993Z,18.75
2018-08-22T05:50:51.022Z,18.69
2018-08-22T05:51:51.041Z,18.66
2018-08-22T05:52:51.059Z,18.65
2018-08-22T05:53:51.088Z,18.64
2018-08-22T05:54:51.115Z,18.76
2018-08-22T05:55:51.132Z,18.75
2018-08-22T05:56:51.157Z,18.74
2018-08-22T05:57:51.175Z,18.89
2018-08-22T05:58:51.200Z,18.78
2018-08-22T05:59:51.225Z,18.83
2018-08-22T06:00:51.249Z,18.86
2018-08-22T06:01:51.272Z,18.84
2018-08-22T06:02:51.292Z,18.87
2018-08-22T06:03:51.320Z,18.96
2018-08-22T06:04:51.338Z,18.97
2018-08-22T06:05:51.366Z,18.91
2018-08-22T06:06:51.396Z,18.99
2018-08-22T06:07:51.415Z,19.01
2018-08-22T06:08:51.433Z,18.99
2018-08-22T06:09:51.465Z,19.02
2018-08-22T06:10:51.478Z,19.07
2018-08-22T06:11:51.502Z,19.15
2018-08-22T06:12:51.520Z,19.10
2018-08-22T06:13:51.553Z,19.13
2018-08-22T06:14:51.585Z,19.15
2018-08-22T06:15:51.596Z,19.15
2018-08-22T06:16:51.645Z,19.28
2018-08-22T06:17:51.642Z,19.24
2018-08-22T06:18:51.672Z,19.13
2018-08-22T06:19:51.694Z,19.21
2018-08-22T06:20:51.713Z,19.20
2018-08-22T06:21:51.737Z,19.20
2018-08-22T06:22:51.756Z,19.17
2018-08-22T06:23:51.790Z,19.23
2018-08-22T06:24:51.802Z,19.32
2018-08-22T06:25:51.828Z,19.24
2018-08-22T06:26:51.850Z,19.24
2018-08-22T06:27:51.873Z,19.28
2018-08-22T06:28:51.901Z,19.24
2018-08-22T06:29:51.920Z,19.25
2018-08-22T06:30:51.946Z,19.21
2018-08-22T06:31:51.980Z,19.23
2018-08-22T06:32:52.025Z,19.24
2018-08-22T06:33:52.023Z,19.23
2018-08-22T06:34:52.046Z,19.39
2018-08-22T06:35:52.061Z,19.32
2018-08-22T06:36:52.093Z,19.31
2018-08-22T06:37:52.126Z,19.39
2018-08-22T06:38:52.133Z,19.32
2018-08-22T06:39:52.161Z,19.42
2018-08-22T06:40:52.186Z,19.31
2018-08-22T06:41:52.210Z,19.38
2018-08-22T06:42:52.226Z,19.39
2018-08-22T06:43:52.253Z,19.43
2018-08-22T06:44:52.270Z,19.38
2018-08-22T06:45:52.300Z,19.46
2018-08-22T06:46:52.323Z,19.45
2018-08-22T06:47:52.339Z,19.45
2018-08-22T06:48:52.368Z,19.45
2018-08-22T06:49:52.388Z,19.50
2018-08-22T06:50:52.410Z,19.47
2018-08-22T06:51:52.441Z,19.58
2018-08-22T06:52:52.464Z,19.61
2018-08-22T06:53:52.487Z,19.61
2018-08-22T06:54:52.508Z,19.67
2018-08-22T06:55:52.534Z,19.65
2018-08-22T06:56:52.553Z,19.79
2018-08-22T06:57:52.578Z,19.83
2018-08-22T06:58:52.602Z,19.79
2018-08-22T06:59:52.621Z,19.72
2018-08-22T07:00:52.650Z,19.82
2018-08-22T07:01:52.671Z,19.85
2018-08-22T07:02:52.695Z,19.86
2018-08-22T07:03:52.718Z,19.94
2018-08-22T07:04:52.742Z,19.97
2018-08-22T07:05:52.765Z,19.97
2018-08-22T07:06:52.793Z,20.04
2018-08-22T07:07:52.847Z,20.12
2018-08-22T07:08:52.841Z,20.08
2018-08-22T07:09:52.863Z,20.04
2018-08-22T07:10:52.881Z,20.10
2018-08-22T07:11:52.910Z,20.05
2018-08-22T07:12:52.930Z,20.02
2018-08-22T07:13:52.993Z,20.04
2018-08-22T07:14:52.982Z,20.01
2018-08-22T07:15:53.000Z,20.08
2018-08-22T07:16:53.024Z,20.10
2018-08-22T07:17:53.052Z,20.08
2018-08-22T07:18:53.075Z,20.12
2018-08-22T07:19:53.094Z,20.22
2018-08-22T07:20:53.172Z,20.12
2018-08-22T07:21:53.142Z,20.08
2018-08-22T07:22:53.170Z,20.13
2018-08-22T07:23:53.192Z,20.08
2018-08-22T07:24:53.221Z,20.13
2018-08-22T07:25:53.242Z,20.25
2018-08-22T07:26:53.264Z,20.27
2018-08-22T07:27:53.288Z,20.37
2018-08-22T07:28:53.312Z,20.42
2018-08-22T07:29:53.332Z,20.46
2018-08-22T07:30:53.356Z,20.34
2018-08-22T07:31:53.390Z,20.38
2018-08-22T07:32:53.405Z,20.37
2018-08-22T07:33:53.433Z,20.40
2018-08-22T07:34:53.463Z,20.44
2018-08-22T07:35:53.641Z,20.46
2018-08-22T07:36:53.506Z,20.42
2018-08-22T07:37:53.526Z,20.50
2018-08-22T07:38:53.551Z,20.46
2018-08-22T07:39:53.582Z,20.51
2018-08-22T07:40:53.606Z,20.60
2018-08-22T07:41:53.620Z,20.64
2018-08-22T07:42:53.648Z,20.72
2018-08-22T07:43:53.675Z,20.72
2018-08-22T07:44:53.694Z,20.73
2018-08-22T07:45:53.712Z,20.75
2018-08-22T07:46:53.736Z,20.73
2018-08-22T07:47:53.764Z,20.68
2018-08-22T07:48:53.788Z,20.63
2018-08-22T07:49:53.814Z,20.75
2018-08-22T07:50:53.839Z,20.72
2018-08-22T07:51:53.857Z,20.78
2018-08-22T07:52:53.904Z,20.78
2018-08-22T07:53:53.906Z,20.78
2018-08-22T07:54:53.934Z,20.79
2018-08-22T07:55:53.962Z,20.81
2018-08-22T07:56:54.038Z,20.87
2018-08-22T07:57:54.004Z,20.94
2018-08-22T07:58:54.036Z,20.93
2018-08-22T07:59:54.052Z,20.98
2018-08-22T08:00:54.078Z,20.97
2018-08-22T08:01:54.156Z,21.09
2018-08-22T08:02:54.130Z,21.05
2018-08-22T08:03:54.151Z,21.11
2018-08-22T08:04:54.180Z,21.08
2018-08-22T08:05:54.193Z,21.09
2018-08-22T08:06:54.285Z,21.12
2018-08-22T08:07:54.251Z,21.18
2018-08-22T08:08:54.268Z,21.26
2018-08-22T08:09:54.300Z,21.22
2018-08-22T08:10:54.380Z,21.21
2018-08-22T08:11:54.343Z,21.24
2018-08-22T08:12:54.394Z,21.28
2018-08-22T08:13:54.394Z,21.22
2018-08-22T08:14:54.423Z,21.26
2018-08-22T08:15:54.444Z,21.33
2018-08-22T08:16:54.467Z,21.36
2018-08-22T08:17:54.513Z,21.45
2018-08-22T08:18:54.517Z,21.52
2018-08-22T08:19:54.540Z,21.48
2018-08-22T08:20:54.568Z,21.48
2018-08-22T08:21:54.589Z,21.52
2018-08-22T08:22:54.610Z,21.56
2018-08-22T08:23:54.636Z,21.61
2018-08-22T08:24:54.666Z,21.64
2018-08-22T08:25:54.682Z,21.56
2018-08-22T08:26:54.712Z,21.59
2018-08-22T08:27:54.733Z,21.68
2018-08-22T08:28:54.760Z,21.74
2018-08-22T08:29:54.782Z,21.74
2018-08-22T08:30:54.809Z,21.73
2018-08-22T08:31:54.835Z,21.71
2018-08-22T08:32:54.853Z,21.79
2018-08-22T08:33:54.880Z,21.81
2018-08-22T08:34:54.905Z,21.79
2018-08-22T08:35:54.928Z,21.82
2018-08-22T08:36:54.952Z,21.85
2018-08-22T08:37:54.981Z,21.86
2018-08-22T08:38:55.004Z,21.89
2018-08-22T08:39:55.040Z,21.82
2018-08-22T08:40:55.055Z,21.93
2018-08-22T08:41:55.079Z,22.01
2018-08-22T08:42:55.106Z,21.98
2018-08-22T08:43:55.127Z,22.12
2018-08-22T08:44:55.149Z,22.19
2018-08-22T08:45:55.175Z,22.23
2018-08-22T08:47:55.223Z,22.33
2018-08-22T08:48:55.255Z,22.39
2018-08-22T08:49:55.278Z,22.41
2018-08-22T08:50:55.501Z,22.48
2018-08-22T08:51:55.524Z,22.51
2018-08-22T08:52:55.353Z,22.57
2018-08-22T08:53:55.371Z,22.54
2018-08-22T08:54:55.401Z,22.61
2018-08-22T08:55:55.427Z,22.64
2018-08-22T08:56:55.479Z,22.60
2018-08-22T08:57:55.479Z,22.66
2018-08-22T08:58:55.497Z,22.70
2018-08-22T08:59:55.519Z,22.72
2018-08-22T09:00:55.547Z,22.72
2018-08-22T09:01:55.577Z,22.72
2018-08-22T09:02:55.597Z,22.78
2018-08-22T09:03:55.672Z,22.84
2018-08-22T09:04:55.649Z,22.89
2018-08-22T09:05:55.668Z,22.93
2018-08-22T09:06:55.698Z,22.97
2018-08-22T09:07:55.725Z,23.00
2018-08-22T09:08:55.750Z,23.01
2018-08-22T09:09:55.774Z,23.01
2018-08-22T09:10:55.793Z,23.03
2018-08-22T09:11:55.817Z,23.06
2018-08-22T09:12:55.845Z,23.11
2018-08-22T09:13:55.889Z,23.07
2018-08-22T09:15:55.921Z,23.26
2018-08-22T09:16:55.949Z,23.22
2018-08-22T09:17:55.973Z,23.25
2018-08-22T09:18:55.995Z,23.26
2018-08-22T09:19:56.023Z,23.23
2018-08-22T09:20:56.050Z,23.34
2018-08-22T09:21:56.076Z,23.41
2018-08-22T09:22:56.093Z,23.54
2018-08-22T09:23:56.165Z,23.56
2018-08-22T09:24:56.142Z,23.59
2018-08-22T09:25:56.169Z,23.62
2018-08-22T09:26:56.201Z,23.62
2018-08-22T09:27:56.217Z,23.64
2018-08-22T09:28:56.253Z,23.71
2018-08-22T09:29:56.312Z,23.63
2018-08-22T09:30:56.303Z,23.72
2018-08-22T09:31:56.323Z,23.68
2018-08-22T09:32:56.351Z,23.72
2018-08-22T09:33:56.375Z,23.78
2018-08-22T09:34:56.399Z,23.77
2018-08-22T09:35:56.437Z,23.79
2018-08-22T09:36:56.453Z,23.89
2018-08-22T09:37:56.478Z,24.02
2018-08-22T09:38:56.516Z,23.93
2018-08-22T09:39:56.553Z,23.93
2018-08-22T09:40:56.557Z,23.92
2018-08-22T09:41:56.583Z,23.99
2018-08-22T09:42:56.604Z,24.02
2018-08-22T09:43:56.636Z,24.14
2018-08-22T09:44:56.657Z,24.24
2018-08-22T09:45:56.685Z,24.26
2018-08-22T09:46:56.707Z,24.26
2018-08-22T09:47:56.731Z,24.24
2018-08-22T09:48:56.752Z,24.31
2018-08-22T09:49:56.781Z,24.23
2018-08-22T09:50:56.884Z,24.36
2018-08-22T09:51:56.835Z,24.33
2018-08-22T09:52:56.859Z,24.42
2018-08-22T09:53:56.891Z,24.46
2018-08-22T09:54:56.909Z,24.56
2018-08-22T09:55:56.939Z,24.52
2018-08-22T09:56:56.967Z,24.44
2018-08-22T09:57:56.985Z,24.48
2018-08-22T09:58:57.041Z,24.52
2018-08-22T09:59:57.117Z,24.52
2018-08-22T10:00:57.095Z,24.63
2018-08-22T10:01:57.093Z,24.67
2018-08-22T10:02:57.119Z,24.80
2018-08-22T10:03:57.150Z,24.84
2018-08-22T10:04:57.167Z,24.86
2018-08-22T10:05:57.195Z,24.92
2018-08-22T10:06:57.225Z,24.89
2018-08-22T10:07:57.250Z,24.92
2018-08-22T10:08:57.275Z,25.11
2018-08-22T10:09:57.369Z,25.09
2018-08-22T10:10:57.329Z,24.98
2018-08-22T10:11:57.364Z,24.97
2018-08-22T10:12:57.375Z,24.89
2018-08-22T10:13:57.403Z,24.82
2018-08-22T10:14:57.433Z,24.87
2018-08-22T10:15:57.464Z,24.97
2018-08-22T10:16:57.480Z,25.07
2018-08-22T10:17:57.503Z,25.07
2018-08-22T10:18:57.580Z,25.07
2018-08-22T10:19:57.559Z,25.04
2018-08-22T10:20:57.587Z,24.99
2018-08-22T10:21:57.612Z,25.04
2018-08-22T10:22:57.637Z,25.02
2018-08-22T10:23:57.669Z,25.17
2018-08-22T10:24:57.694Z,25.27
2018-08-22T10:25:57.719Z,25.17
2018-08-22T10:26:57.757Z,25.29
2018-08-22T10:27:57.775Z,25.38
2018-08-22T10:28:57.790Z,25.46
2018-08-22T10:29:57.823Z,25.42
2018-08-22T10:30:57.849Z,25.49
2018-08-22T10:31:57.872Z,25.48
2018-08-22T10:32:57.953Z,25.66
2018-08-22T10:33:57.930Z,25.64
2018-08-22T10:34:57.957Z,25.67
2018-08-22T10:35:57.985Z,25.78
2018-08-22T10:36:58.003Z,25.82
2018-08-22T10:37:58.060Z,25.83
2018-08-22T10:39:58.150Z,25.89
2018-08-22T10:40:58.112Z,25.94
2018-08-22T10:41:58.141Z,25.97
2018-08-22T10:42:58.163Z,26.06
2018-08-22T10:43:58.190Z,26.13
2018-08-22T10:44:58.218Z,26.16
2018-08-22T10:45:58.246Z,26.17
2018-08-22T10:46:58.273Z,26.34
2018-08-22T10:47:58.303Z,26.35
2018-08-22T10:48:58.327Z,26.42
2018-08-22T10:49:58.350Z,26.61
2018-08-22T10:50:58.389Z,26.65
2018-08-22T10:51:58.408Z,26.78
2018-08-22T10:52:58.436Z,26.83
2018-08-22T10:53:58.492Z,26.98
2018-08-22T10:54:58.490Z,27.09
2018-08-22T10:55:58.520Z,27.21
2018-08-22T10:56:58.552Z,27.30
2018-08-22T10:57:58.576Z,27.39
2018-08-22T10:58:58.612Z,27.50
2018-08-22T10:59:58.634Z,27.69
2018-08-22T11:00:58.660Z,27.93
2018-08-22T11:01:58.705Z,28.01
2018-08-22T11:02:58.720Z,28.09
2018-08-22T11:04:41.303Z,28.38
2018-08-22T11:05:41.333Z,28.79
2018-08-22T11:07:41.391Z,30.07
2018-08-22T11:08:41.429Z,31.03
2018-08-22T11:09:41.459Z,31.95
2018-08-22T11:10:41.490Z,32.62
2018-08-22T11:11:41.527Z,33.17
2018-08-22T11:12:41.554Z,34.26
2018-08-22T11:13:41.592Z,34.37
2018-08-22T11:14:41.629Z,34.78
2018-08-22T11:15:41.664Z,34.94
2018-08-22T11:16:41.693Z,35.59
2018-08-22T11:17:41.725Z,36.03
2018-08-22T11:18:41.763Z,36.49
2018-08-22T11:19:41.795Z,36.15
2018-08-22T11:20:41.827Z,35.95
2018-08-22T11:21:41.868Z,36.03
2018-08-22T11:22:41.905Z,36.35
2018-08-22T11:23:41.937Z,36.96
2018-08-22T11:24:41.973Z,37.02
2018-08-22T11:25:42.011Z,37.82
2018-08-22T11:26:42.053Z,38.26
2018-08-22T11:27:42.078Z,38.03
2018-08-22T11:28:42.121Z,38.28
2018-08-22T11:29:42.159Z,38.82
2018-08-22T11:30:42.191Z,39.28
2018-08-22T11:31:42.233Z,38.58
2018-08-22T11:32:42.258Z,38.34
2018-08-22T11:33:42.301Z,38.62
2018-08-22T11:34:42.337Z,38.84
2018-08-22T11:35:42.377Z,38.81
2018-08-22T11:36:42.407Z,39.16
2018-08-22T11:37:42.449Z,39.44
2018-08-22T11:38:42.485Z,40.02
2018-08-22T11:39:42.520Z,40.34
2018-08-22T11:40:42.563Z,39.87
2018-08-22T11:41:42.594Z,39.57
2018-08-22T11:42:42.637Z,39.31
2018-08-22T11:46:42.837Z,37.84
2018-08-22T11:47:43.048Z,37.25
2018-08-22T11:48:42.859Z,38.09
2018-08-22T11:50:31.279Z,38.97
2018-08-22T11:52:13.065Z,39.76
2018-08-22T11:53:13.505Z,39.75
2018-08-22T11:54:14.355Z,39.75
2018-08-22T11:55:13.179Z,39.72
2018-08-22T11:56:13.232Z,39.75
2018-08-22T12:00:08.484Z,39.51
2018-08-22T12:01:08.528Z,39.13
2018-08-22T12:02:08.562Z,39.50
2018-08-22T12:03:08.605Z,39.39
2018-08-22T12:04:08.646Z,39.80
2018-08-22T12:05:08.679Z,39.82
2018-08-22T12:06:08.717Z,39.68
2018-08-22T12:07:08.761Z,40.10
2018-08-22T12:08:09.203Z,40.58
2018-08-22T12:09:08.837Z,41.28
2018-08-22T12:10:08.873Z,41.93
2018-08-22T12:11:08.914Z,42.05
2018-08-22T12:12:08.953Z,42.02
2018-08-22T12:13:11.619Z,42.15
2018-08-22T12:14:09.035Z,42.07
2018-08-22T12:15:09.073Z,42.14
2018-08-22T12:16:09.132Z,42.39
2018-08-22T12:17:09.152Z,42.57
2018-08-22T12:18:09.197Z,42.15
2018-08-22T12:19:09.237Z,41.57
2018-08-22T12:20:09.271Z,41.62
2018-08-22T12:21:09.311Z,41.86
2018-08-22T12:22:09.348Z,41.82
2018-08-22T12:23:09.583Z,42.31
2018-08-22T12:24:09.429Z,42.52
2018-08-22T12:25:09.474Z,42.38
2018-08-22T12:26:09.504Z,42.41
2018-08-22T12:27:09.546Z,43.02
2018-08-22T12:28:09.587Z,42.29
2018-08-22T12:30:09.667Z,42.61
2018-08-22T12:31:09.807Z,43.30
2018-08-22T12:32:09.745Z,43.36
2018-08-22T12:33:09.787Z,43.75
2018-08-22T12:34:09.823Z,44.30
2018-08-22T12:35:09.866Z,43.41
2018-08-22T12:36:09.908Z,42.80
2018-08-22T12:37:09.944Z,42.84
2018-08-22T12:38:09.996Z,42.80
2018-08-22T12:39:10.029Z,43.25
2018-08-22T12:40:12.695Z,43.84
2018-08-22T12:41:10.120Z,43.52
2018-08-22T12:42:10.149Z,44.18
2018-08-22T12:43:12.818Z,44.13
2018-08-22T12:44:10.235Z,44.64
2018-08-22T12:45:10.277Z,44.42
2018-08-22T12:46:10.317Z,44.25
2018-08-22T12:47:10.363Z,44.15
2018-08-22T12:48:10.403Z,43.31
2018-08-22T12:49:10.441Z,43.45
2018-08-22T12:50:10.502Z,43.49
2018-08-22T12:51:10.528Z,43.84
2018-08-22T12:52:10.580Z,44.21
2018-08-22T12:53:10.617Z,44.28
2018-08-22T12:54:10.655Z,43.81
2018-08-22T12:55:10.700Z,43.62
2018-08-22T12:56:10.746Z,44.15
2018-08-22T12:57:10.791Z,44.09
2018-08-22T12:58:10.825Z,44.50
2018-08-22T12:59:10.867Z,44.74
2018-08-22T13:00:10.907Z,45.07
2018-08-22T13:01:10.955Z,44.98
2018-08-22T13:02:11.003Z,45.01
2018-08-22T13:03:11.043Z,44.64
2018-08-22T13:04:11.076Z,44.69
2018-08-22T13:05:11.125Z,44.20
2018-08-22T13:06:11.161Z,44.27